Details From RJFR - NEW KITAKYUSHU
To RJFT - KUMAMOTO
Flight Number -
Tags generated
Created
Modified
Stats Distance 62 nm / 114 km
Max Altitude 700 ft / 213 m
Waypoints 3
Social Downloads 0
Likes 0
Share VATSIM

Download

Looking for another format? Having issues loading an existing format? Contact us
Advertisement - Login to hide

Notes

Basic altitude profile: - Ascent Rate: 2500ft/min - Ascent Speed: 250kts - Cruise Altitude: 35000ft - Cruise Speed: 420kts - Descent Rate: 1500ft/min - Descent Speed: 250kts Options: - Use NATs: yes - Use PACOTS: yes - Use low airways: yes - Use high airways: yes

Route

RJFR KANDA RJFT

ID Type Via Altitude (ft/m) Position (lat/lon) Dist (leg/tot) Name
O RJFR APT - 0 / 0 33.84594 / 131.03469 - / 0 nm NEW KITAKYUSHU
KANDA FIX - 700 / 213 33.81856 / 131.00817 2 / 2 nm
O RJFT APT - 0 / 0 32.83732 / 130.85505 59 / 61 nm KUMAMOTO

Altitude Profile

Advertisement - Login to hide

RJFR

Details ICAO RJFR (KKJ)
Name Kitakyushu
Region Japan
Timezone Asia/Tokyo (UTC+9.0)
Stats Elevation 20 ft / 6 m (AMSL)
Location 33.845600° 131.035000°
Runways 1
Magnetic Variation 7.610° W

METAR

RJFR 181500Z 22007KT 9999 FEW030 09/00 Q1022

Decode

TAF

TAF TAF RJFR 181106Z 1812/1918 27010KT 9999 FEW025 BKN050 BECMG 1812/1814 25008KT TEMPO 1903/1906 25016G26KT

Decode

Departure Runways

ID Width Length Bearing (true/mag) Surface Threshold Overrun Markings Lighting
18 197 ft / 60 m 8,210 ft / 2,502 m 170.36° / 177.97° ASPHALT 0 ft / 0 m 197 ft / 60 m PREC-APP CENTERLINE EDGE THRESHOLD ALSF-I TDZ REIL-OMNI
36 197 ft / 60 m 8,210 ft / 2,502 m 350.36° / 357.97° ASPHALT 0 ft / 0 m 207 ft / 63 m PREC-APP CENTERLINE EDGE THRESHOLD SALS REIL-OMNI

RJFT

Details ICAO RJFT (KMJ)
Name Kumamoto
Region Japan
Timezone Asia/Tokyo (UTC+9.0)
Stats Elevation 642 ft / 196 m (AMSL)
Location 32.836900° 130.855000°
Runways 1
Magnetic Variation 7.303° W

METAR

Not found

TAF

TAF RJFT 181108Z 1812/1918 06004KT 9999 FEW030 BECMG 1900/1903 23007KT BECMG 1909/1912 12004KT

Decode

Destination Runways

ID Width Length Bearing (true/mag) Surface Threshold Overrun Markings Lighting
07 150 ft / 46 m 9,830 ft / 2,996 m 64.50° / 71.80° ASPHALT 0 ft / 0 m 197 ft / 60 m PREC-APP CENTERLINE EDGE THRESHOLD ALSF-II TDZ
25 150 ft / 46 m 9,830 ft / 2,996 m 244.51° / 251.82° ASPHALT 0 ft / 0 m 194 ft / 59 m APP CENTERLINE EDGE THRESHOLD SALS

Approach Navaids

Runway Type Ident Frequency Range Bearing (true/mag) Slope Elevation
07 MM MM - - 64.48° / 71.79 ° - 601 ft / 183 m (AMSL)
07 GS IKU 109.30 MHz 10 nm / 19 km 64.96° / 72.27 ° 3.00° 651 ft / 198 m (AMSL)
07 LOC-ILS IKU 109.30 MHz 18 nm / 33 km 64.49° / 71.79 ° - 642 ft / 196 m (AMSL)
07 OM OM - - 64.48° / 71.79 ° - 642 ft / 196 m (AMSL)